Time;durP1;ratioP1;P1;durP2;ratioP2;P2;SDS_P1;SDS_P2;PMS_P1;PMS_P2;Temp;Humidity;BMP_temperature;BMP_pressure;BME280_temperature;BME280_humidity;BME280_pressure;Samples;Min_cycle;Max_cycle;Signal;HPM_P1;HPM_P2
2021/07/02 00:02:20;;;;;;;6.20;2.47;;;;;;;;;;5055592;28;20228;-41
2021/07/02 00:04:46;;;;;;;10.05;2.42;;;;;;;;;;5053479;28;20318;-38
2021/07/02 00:07:11;;;;;;;2.60;2.03;;;;;;;;;;5054102;28;20086;-41
2021/07/02 00:09:36;;;;;;;2.53;1.98;;;;;;;;;;5053353;28;20483;-38
2021/07/02 00:12:02;;;;;;;5.45;3.55;;;;;;;;;;5052208;28;20709;-38
2021/07/02 00:14:27;;;;;;;7.00;2.92;;;;;;;;;;5054114;28;20040;-39
2021/07/02 00:16:52;;;;;;;3.05;2.60;;;;;;;;;;5054249;28;20025;-38
2021/07/02 00:19:19;;;;;;;2.65;2.25;;;;;;;;;;5052316;28;20027;-38
2021/07/02 00:21:44;;;;;;;9.18;3.10;;;;;;;;;;5052430;28;20036;-39
2021/07/02 00:24:09;;;;;;;12.50;2.95;;;;;;;;;;5053280;28;20025;-40
2021/07/02 00:26:35;;;;;;;2.88;2.05;;;;;;;;;;5050613;28;20742;-40
2021/07/02 00:29:01;;;;;;;5.85;3.60;;;;;;;;;;5052531;28;20624;-38
2021/07/02 00:31:26;;;;;;;5.70;2.88;;;;;;;;;;5051612;28;20040;-39
2021/07/02 00:33:51;;;;;;;4.07;2.75;;;;;;;;;;5055803;28;20768;-39
2021/07/02 00:36:17;;;;;;;7.22;3.65;;;;;;;;;;5053321;28;20017;-38
2021/07/02 00:38:42;;;;;;;5.88;3.20;;;;;;;;;;5057357;28;20068;-39
2021/07/02 00:41:08;;;;;;;7.32;2.38;;;;;;;;;;5049906;28;20446;-38
2021/07/02 00:43:33;;;;;;;5.25;2.65;;;;;;;;;;5054291;28;20052;-39
2021/07/02 00:45:58;;;;;;;2.80;2.22;;;;;;;;;;5052028;28;20025;-40
2021/07/02 00:48:24;;;;;;;7.35;2.60;;;;;;;;;;5052262;28;20032;-39
2021/07/02 00:50:50;;;;;;;5.38;3.22;;;;;;;;;;5053860;28;20032;-38
2021/07/02 00:53:15;;;;;;;4.85;2.88;;;;;;;;;;5055166;28;20024;-38
2021/07/02 00:55:42;;;;;;;6.55;3.45;;;;;;;;;;5059358;28;20020;-39
2021/07/02 00:58:07;;;;;;;4.07;3.05;;;;;;;;;;5055243;28;20044;-38
2021/07/02 01:00:32;;;;;;;6.40;2.63;;;;;;;;;;5054752;28;20032;-38
2021/07/02 01:02:57;;;;;;;3.30;2.20;;;;;;;;;;5059782;28;20017;-39
2021/07/02 01:05:23;;;;;;;7.28;3.67;;;;;;;;;;5055018;28;20183;-39
2021/07/02 01:07:48;;;;;;;2.75;2.08;;;;;;;;;;5058036;28;20107;-41
2021/07/02 01:10:17;;;;;;;3.72;2.70;;;;;;;;;;5056592;28;20510;-38
2021/07/02 01:12:42;;;;;;;3.50;1.65;;;;;;;;;;5057833;28;20073;-39
2021/07/02 01:15:18;;;;;;;4.93;2.42;;;;;;;;;;5055156;28;20213;-38
2021/07/02 01:17:43;;;;;;;3.92;2.33;;;;;;;;;;5055494;28;20055;-39
2021/07/02 01:20:09;;;;;;;3.55;2.60;;;;;;;;;;5054734;28;20767;-39
2021/07/02 01:22:34;;;;;;;8.52;3.08;;;;;;;;;;5057954;28;20028;-39
2021/07/02 01:24:59;;;;;;;3.33;2.05;;;;;;;;;;5055268;28;20107;-40
2021/07/02 01:27:25;;;;;;;5.97;2.63;;;;;;;;;;5055285;28;20024;-40
2021/07/02 01:29:50;;;;;;;8.07;2.80;;;;;;;;;;5057273;28;20879;-39
2021/07/02 01:32:16;;;;;;;2.47;1.90;;;;;;;;;;5055356;28;20474;-38
2021/07/02 01:34:42;;;;;;;5.25;3.13;;;;;;;;;;5057162;28;20017;-38
2021/07/02 01:37:08;;;;;;;2.70;2.08;;;;;;;;;;5058125;28;20020;-39
2021/07/02 01:39:33;;;;;;;4.85;2.25;;;;;;;;;;5058367;28;20032;-40
2021/07/02 01:41:59;;;;;;;5.85;2.22;;;;;;;;;;5056170;28;20029;-39
2021/07/02 01:44:24;;;;;;;6.05;2.28;;;;;;;;;;5054008;28;20052;-38
2021/07/02 01:46:49;;;;;;;7.88;3.17;;;;;;;;;;5060651;28;20035;-40
2021/07/02 01:49:15;;;;;;;2.58;1.88;;;;;;;;;;5054964;28;20071;-39
2021/07/02 01:51:40;;;;;;;3.47;2.25;;;;;;;;;;5056015;28;20028;-39
2021/07/02 01:54:06;;;;;;;6.97;2.25;;;;;;;;;;5056609;28;20491;-38
2021/07/02 01:56:31;;;;;;;2.17;1.45;;;;;;;;;;5053906;28;20021;-38
2021/07/02 01:58:56;;;;;;;2.78;2.08;;;;;;;;;;5058008;28;20445;-38
2021/07/02 02:01:21;;;;;;;7.15;2.78;;;;;;;;;;5053478;28;20032;-38
2021/07/02 02:03:47;;;;;;;2.53;1.52;;;;;;;;;;5057029;28;20033;-38
2021/07/02 02:06:13;;;;;;;10.65;3.20;;;;;;;;;;5059215;28;20048;-39
2021/07/02 02:08:38;;;;;;;3.50;2.28;;;;;;;;;;5052070;28;20033;-39
2021/07/02 02:11:03;;;;;;;2.50;1.67;;;;;;;;;;5054315;28;20174;-39
2021/07/02 02:13:29;;;;;;;5.45;2.40;;;;;;;;;;5054288;28;20506;-38
2021/07/02 02:15:54;;;;;;;4.72;1.92;;;;;;;;;;5056198;28;20391;-38
2021/07/02 02:18:19;;;;;;;4.05;2.72;;;;;;;;;;5057732;28;20515;-40
2021/07/02 02:20:45;;;;;;;5.72;2.20;;;;;;;;;;5055446;28;20029;-39
2021/07/02 02:23:10;;;;;;;4.78;2.03;;;;;;;;;;5054429;28;20696;-38
2021/07/02 02:25:36;;;;;;;3.70;2.30;;;;;;;;;;5052862;28;20105;-40
2021/07/02 02:28:01;;;;;;;4.35;1.60;;;;;;;;;;5057002;28;20021;-39
2021/07/02 02:30:28;;;;;;;5.00;2.42;;;;;;;;;;5052483;28;20052;-39
2021/07/02 02:32:53;;;;;;;3.47;2.75;;;;;;;;;;5055105;28;20420;-38
2021/07/02 02:35:18;;;;;;;2.22;1.90;;;;;;;;;;5054986;28;20162;-38
2021/07/02 02:37:44;;;;;;;4.43;2.33;;;;;;;;;;5054007;28;20387;-40
2021/07/02 02:40:09;;;;;;;3.63;1.58;;;;;;;;;;5056591;28;20652;-39
2021/07/02 02:42:35;;;;;;;7.45;1.95;;;;;;;;;;5056132;28;20476;-38
2021/07/02 02:45:00;;;;;;;2.95;1.77;;;;;;;;;;5053436;28;20033;-38
2021/07/02 02:47:26;;;;;;;3.00;1.67;;;;;;;;;;5055028;28;20024;-38
2021/07/02 02:49:51;;;;;;;3.50;1.40;;;;;;;;;;5051874;28;20029;-38
2021/07/02 02:52:16;;;;;;;2.75;1.90;;;;;;;;;;5053778;28;20025;-39
2021/07/02 02:54:41;;;;;;;2.00;1.80;;;;;;;;;;5056327;28;20020;-38
2021/07/02 02:57:07;;;;;;;2.15;1.52;;;;;;;;;;5054065;28;20024;-38
2021/07/02 02:59:34;;;;;;;2.65;1.92;;;;;;;;;;5052849;28;20035;-38
2021/07/02 03:01:59;;;;;;;12.82;2.70;;;;;;;;;;5044556;28;20111;-39
2021/07/02 03:04:25;;;;;;;8.10;2.15;;;;;;;;;;5053956;28;20112;-39
2021/07/02 03:06:50;;;;;;;3.72;2.40;;;;;;;;;;5052381;28;20044;-38
2021/07/02 03:09:16;;;;;;;3.13;2.15;;;;;;;;;;5051788;28;20105;-38
2021/07/02 03:11:44;;;;;;;3.95;2.40;;;;;;;;;;5054609;28;20249;-39
2021/07/02 03:14:13;;;;;;;4.82;2.97;;;;;;;;;;5054804;28;20067;-38
2021/07/02 03:16:38;;;;;;;2.58;1.95;;;;;;;;;;5053730;28;20126;-37
2021/07/02 03:19:04;;;;;;;4.53;2.40;;;;;;;;;;5053134;28;20562;-39
2021/07/02 03:21:29;;;;;;;7.22;2.53;;;;;;;;;;5056724;28;20112;-38
2021/07/02 03:23:54;;;;;;;1.48;1.20;;;;;;;;;;5052307;28;20017;-38
2021/07/02 03:26:20;;;;;;;3.00;2.03;;;;;;;;;;5052052;28;20032;-37
2021/07/02 03:28:45;;;;;;;4.15;3.10;;;;;;;;;;5055762;28;20460;-38
2021/07/02 03:31:10;;;;;;;1.98;1.55;;;;;;;;;;5052276;28;20033;-37
2021/07/02 03:33:36;;;;;;;4.75;2.47;;;;;;;;;;5056625;28;20029;-40
2021/07/02 03:36:01;;;;;;;4.90;2.70;;;;;;;;;;5056104;28;20020;-38
2021/07/02 03:38:26;;;;;;;4.78;2.58;;;;;;;;;;5057709;28;20399;-38
2021/07/02 03:40:52;;;;;;;3.38;2.05;;;;;;;;;;5058706;28;20020;-37
2021/07/02 03:43:17;;;;;;;7.40;2.80;;;;;;;;;;5058535;28;20104;-38
2021/07/02 03:45:43;;;;;;;3.00;1.92;;;;;;;;;;5052925;28;20171;-37
2021/07/02 03:48:08;;;;;;;2.15;1.80;;;;;;;;;;5050036;28;20044;-38
2021/07/02 03:50:33;;;;;;;4.93;2.22;;;;;;;;;;5054628;28;20031;-38
2021/07/02 03:52:58;;;;;;;5.18;1.65;;;;;;;;;;5053441;28;20024;-38
2021/07/02 03:55:24;;;;;;;4.18;2.08;;;;;;;;;;5052166;28;20122;-38
2021/07/02 03:57:49;;;;;;;1.90;1.17;;;;;;;;;;5052978;28;20598;-40
2021/07/02 04:00:15;;;;;;;3.05;1.65;;;;;;;;;;5053864;28;20017;-41
2021/07/02 04:02:40;;;;;;;2.30;1.65;;;;;;;;;;5056170;28;20374;-41
2021/07/02 04:05:05;;;;;;;3.95;1.95;;;;;;;;;;5052410;28;20361;-42
2021/07/02 04:07:31;;;;;;;2.80;1.65;;;;;;;;;;5054518;28;20028;-41
2021/07/02 04:09:56;;;;;;;10.52;2.90;;;;;;;;;;5053409;28;20108;-40
2021/07/02 04:12:21;;;;;;;3.65;2.78;;;;;;;;;;5050878;28;20098;-41
2021/07/02 04:14:47;;;;;;;5.25;1.95;;;;;;;;;;5054965;28;20033;-40
2021/07/02 04:17:12;;;;;;;4.05;2.20;;;;;;;;;;5054659;28;20021;-41
2021/07/02 04:19:38;;;;;;;3.42;2.38;;;;;;;;;;5051688;28;20017;-41
2021/07/02 04:22:04;;;;;;;2.92;1.77;;;;;;;;;;5051149;28;20027;-40
2021/07/02 04:24:30;;;;;;;4.20;3.47;;;;;;;;;;5051678;28;20028;-41
2021/07/02 04:26:55;;;;;;;4.40;2.67;;;;;;;;;;5056042;28;20052;-44
2021/07/02 04:29:21;;;;;;;5.35;2.88;;;;;;;;;;5060753;28;20503;-41
2021/07/02 04:31:46;;;;;;;13.43;3.95;;;;;;;;;;5056795;28;20029;-41
2021/07/02 04:34:11;;;;;;;2.47;1.67;;;;;;;;;;5057158;28;20439;-40
2021/07/02 04:36:36;;;;;;;3.70;2.20;;;;;;;;;;5055873;28;20029;-42
2021/07/02 04:39:02;;;;;;;7.55;2.90;;;;;;;;;;5057996;28;20025;-40
2021/07/02 04:41:28;;;;;;;5.13;2.47;;;;;;;;;;5057351;28;20067;-41
2021/07/02 04:43:53;;;;;;;3.35;2.33;;;;;;;;;;5059054;28;20108;-43
2021/07/02 04:46:18;;;;;;;8.55;2.80;;;;;;;;;;5060114;28;20124;-44
2021/07/02 04:48:44;;;;;;;7.43;2.40;;;;;;;;;;5056647;28;20073;-41
2021/07/02 04:51:10;;;;;;;12.50;2.67;;;;;;;;;;5058589;28;20124;-42
2021/07/02 04:53:35;;;;;;;4.60;3.10;;;;;;;;;;5055840;28;20128;-40
2021/07/02 04:56:00;;;;;;;4.55;3.65;;;;;;;;;;5056774;28;20031;-40
2021/07/02 04:58:26;;;;;;;7.55;4.07;;;;;;;;;;5056973;28;20021;-42
2021/07/02 05:00:51;;;;;;;13.30;3.70;;;;;;;;;;5059987;28;20021;-40
2021/07/02 05:03:16;;;;;;;12.45;3.50;;;;;;;;;;5056350;28;20108;-40
2021/07/02 05:05:42;;;;;;;2.65;2.38;;;;;;;;;;5054317;28;20029;-40
2021/07/02 05:08:08;;;;;;;9.18;3.38;;;;;;;;;;5059560;28;20036;-39
2021/07/02 05:10:34;;;;;;;6.32;3.38;;;;;;;;;;5058105;28;20488;-40
2021/07/02 05:13:00;;;;;;;5.30;4.32;;;;;;;;;;5058705;28;20038;-43
2021/07/02 05:15:25;;;;;;;5.70;3.75;;;;;;;;;;5056417;28;20115;-41
2021/07/02 05:17:50;;;;;;;5.65;3.38;;;;;;;;;;5055599;28;20545;-40
2021/07/02 05:20:16;;;;;;;4.35;3.55;;;;;;;;;;5057243;28;20103;-41
2021/07/02 05:22:41;;;;;;;257.65;167.55;;;;;;;;;;5053525;28;20506;-41
2021/07/02 05:25:07;;;;;;;55.50;36.45;;;;;;;;;;5054478;28;20036;-40
2021/07/02 05:27:32;;;;;;;25.88;13.18;;;;;;;;;;5055592;28;20048;-40
2021/07/02 05:29:58;;;;;;;12.23;9.07;;;;;;;;;;5057823;28;20032;-41
2021/07/02 05:32:23;;;;;;;37.95;29.80;;;;;;;;;;5055630;28;20063;-41
2021/07/02 05:34:48;;;;;;;64.50;42.72;;;;;;;;;;5056135;28;20021;-41
2021/07/02 05:37:14;;;;;;;42.58;29.73;;;;;;;;;;5057701;28;20016;-40
2021/07/02 05:39:39;;;;;;;97.13;60.33;;;;;;;;;;5058088;28;20081;-40
2021/07/02 05:42:04;;;;;;;65.38;47.10;;;;;;;;;;5058713;28;20476;-40
2021/07/02 05:44:30;;;;;;;41.13;30.60;;;;;;;;;;5057624;28;20036;-42
2021/07/02 05:46:55;;;;;;;41.78;23.52;;;;;;;;;;5058450;28;20467;-40
2021/07/02 05:49:20;;;;;;;28.88;24.08;;;;;;;;;;5056891;28;20119;-42
2021/07/02 05:51:46;;;;;;;46.25;31.85;;;;;;;;;;5057859;28;20024;-40
2021/07/02 05:54:12;;;;;;;35.85;23.13;;;;;;;;;;5047248;28;20020;-41
2021/07/02 05:56:37;;;;;;;22.88;20.60;;;;;;;;;;5055616;28;20047;-42
2021/07/02 05:59:03;;;;;;;33.65;24.77;;;;;;;;;;5055310;28;20558;-41
2021/07/02 06:01:29;;;;;;;54.58;40.85;;;;;;;;;;5055630;28;20060;-41
2021/07/02 06:03:54;;;;;;;69.68;47.42;;;;;;;;;;5056673;28;20032;-41
2021/07/02 06:06:20;;;;;;;56.22;46.75;;;;;;;;;;5059000;28;20077;-40
2021/07/02 06:08:46;;;;;;;82.60;60.53;;;;;;;;;;5055375;28;20406;-42
2021/07/02 06:11:11;;;;;;;66.15;51.78;;;;;;;;;;5058063;28;20037;-40
2021/07/02 06:13:37;;;;;;;71.80;49.33;;;;;;;;;;5058310;28;20614;-42
2021/07/02 06:16:02;;;;;;;98.88;72.40;;;;;;;;;;5055350;28;20044;-41
2021/07/02 06:18:27;;;;;;;87.32;74.22;;;;;;;;;;5055604;28;20082;-40
2021/07/02 06:20:53;;;;;;;103.85;63.97;;;;;;;;;;5055120;28;20523;-40
2021/07/02 06:23:18;;;;;;;71.32;45.42;;;;;;;;;;5056107;28;20744;-41
2021/07/02 06:25:44;;;;;;;77.22;49.05;;;;;;;;;;5055937;28;20048;-40
2021/07/02 06:28:09;;;;;;;74.35;58.63;;;;;;;;;;5052577;28;20531;-40
2021/07/02 06:30:34;;;;;;;54.45;43.78;;;;;;;;;;5056917;28;20051;-41
2021/07/02 06:33:00;;;;;;;36.13;27.70;;;;;;;;;;5056500;28;20031;-40
2021/07/02 06:35:25;;;;;;;41.63;23.58;;;;;;;;;;5058836;28;20021;-43
2021/07/02 06:37:50;;;;;;;22.48;17.77;;;;;;;;;;5059904;28;20060;-40
2021/07/02 06:40:19;;;;;;;59.47;29.17;;;;;;;;;;5055433;28;20067;-42
2021/07/02 06:42:44;;;;;;;43.28;33.35;;;;;;;;;;5058607;28;20020;-43
2021/07/02 06:45:11;;;;;;;53.97;31.27;;;;;;;;;;5058981;28;20060;-41
2021/07/02 06:47:48;;;;;;;20.00;14.55;;;;;;;;;;5057070;28;20025;-42
2021/07/02 06:50:13;;;;;;;33.13;16.08;;;;;;;;;;5055340;28;20024;-40
2021/07/02 06:52:38;;;;;;;20.48;15.10;;;;;;;;;;5057820;28;20024;-40
2021/07/02 06:55:04;;;;;;;15.45;8.63;;;;;;;;;;5057112;28;20029;-41
2021/07/02 06:57:29;;;;;;;7.43;6.68;;;;;;;;;;5056896;28;20017;-39
2021/07/02 06:59:58;;;;;;;17.63;7.13;;;;;;;;;;5055425;28;20035;-42
2021/07/02 07:02:23;;;;;;;9.02;4.43;;;;;;;;;;5057207;28;20063;-40
2021/07/02 07:04:48;;;;;;;12.45;5.05;;;;;;;;;;5054977;28;20048;-40
2021/07/02 07:07:13;;;;;;;6.32;4.13;;;;;;;;;;5058450;28;20496;-39
2021/07/02 07:09:39;;;;;;;7.35;4.75;;;;;;;;;;5059335;28;20036;-40
2021/07/02 07:12:05;;;;;;;7.45;5.15;;;;;;;;;;5057902;28;20052;-42
2021/07/02 07:14:30;;;;;;;14.18;5.13;;;;;;;;;;5057755;28;20035;-42
2021/07/02 07:16:56;;;;;;;16.10;7.55;;;;;;;;;;5057252;28;20614;-40
2021/07/02 07:19:26;;;;;;;11.10;7.13;;;;;;;;;;5056121;28;20019;-41
2021/07/02 07:21:51;;;;;;;9.43;5.72;;;;;;;;;;5054573;28;20028;-40
2021/07/02 07:24:16;;;;;;;16.40;7.72;;;;;;;;;;5056435;28;20507;-41
2021/07/02 07:26:41;;;;;;;9.98;8.75;;;;;;;;;;5060405;28;20021;-41
2021/07/02 07:29:07;;;;;;;16.90;6.60;;;;;;;;;;5059546;28;20185;-40
2021/07/02 07:31:32;;;;;;;29.17;9.48;;;;;;;;;;5057223;28;20380;-40
2021/07/02 07:33:59;;;;;;;16.52;7.18;;;;;;;;;;5056263;28;20451;-41
2021/07/02 07:36:24;;;;;;;11.65;4.30;;;;;;;;;;5054977;28;20077;-40
2021/07/02 07:38:50;;;;;;;3.22;2.50;;;;;;;;;;5054690;28;20032;-42
2021/07/02 07:41:15;;;;;;;9.70;7.18;;;;;;;;;;5057187;28;20487;-42
2021/07/02 07:43:40;;;;;;;8.52;7.10;;;;;;;;;;5054438;28;20032;-41
2021/07/02 07:46:06;;;;;;;11.25;7.25;;;;;;;;;;5055616;28;20087;-41
2021/07/02 07:48:31;;;;;;;5.30;4.60;;;;;;;;;;5055093;28;20369;-41
2021/07/02 07:51:13;;;;;;;7.30;2.92;;;;;;;;;;5054401;28;20028;-40
2021/07/02 07:53:39;;;;;;;3.15;2.17;;;;;;;;;;5058034;28;20028;-42
2021/07/02 07:56:04;;;;;;;8.55;2.90;;;;;;;;;;5055111;28;20129;-41
2021/07/02 07:58:29;;;;;;;3.50;2.70;;;;;;;;;;5057828;28;20464;-44
2021/07/02 08:00:55;;;;;;;4.88;2.80;;;;;;;;;;5055912;28;20029;-41
2021/07/02 08:03:20;;;;;;;20.92;4.05;;;;;;;;;;5055383;28;20071;-42
2021/07/02 08:05:45;;;;;;;3.47;2.08;;;;;;;;;;5052918;28;20555;-42
2021/07/02 08:08:12;;;;;;;3.63;2.50;;;;;;;;;;5055455;28;20028;-41
2021/07/02 08:10:38;;;;;;;3.10;2.45;;;;;;;;;;5055806;28;20049;-41
2021/07/02 08:13:03;;;;;;;3.00;2.08;;;;;;;;;;5057118;28;20714;-40
2021/07/02 08:15:28;;;;;;;10.77;5.03;;;;;;;;;;5059596;28;20025;-44
2021/07/02 08:17:54;;;;;;;9.40;7.63;;;;;;;;;;5057015;28;20407;-41
2021/07/02 08:20:19;;;;;;;13.57;6.57;;;;;;;;;;5056460;28;20069;-41
2021/07/02 08:22:44;;;;;;;8.73;4.30;;;;;;;;;;5056768;28;20017;-44
2021/07/02 08:25:10;;;;;;;19.92;5.47;;;;;;;;;;5056783;28;20027;-41
2021/07/02 08:30:19;;;;;;;5.70;3.95;;;;;;;;;;5055603;28;20120;-42
2021/07/02 08:32:44;;;;;;;3.72;2.50;;;;;;;;;;5053282;28;20099;-42
2021/07/02 08:35:10;;;;;;;5.20;2.78;;;;;;;;;;5058916;28;20012;-42
2021/07/02 08:37:35;;;;;;;4.97;2.40;;;;;;;;;;5055925;28;20058;-43
2021/07/02 08:40:00;;;;;;;4.75;2.50;;;;;;;;;;5053602;28;20082;-42
2021/07/02 08:42:26;;;;;;;7.22;3.28;;;;;;;;;;5058144;28;20060;-44
2021/07/02 08:44:51;;;;;;;9.77;3.17;;;;;;;;;;5060355;28;20016;-42
2021/07/02 08:47:17;;;;;;;2.30;1.77;;;;;;;;;;5056334;28;20055;-42
2021/07/02 08:49:43;;;;;;;6.40;3.08;;;;;;;;;;5057811;28;20033;-42
2021/07/02 08:52:09;;;;;;;2.17;1.83;;;;;;;;;;5052765;28;20031;-38
2021/07/02 08:54:34;;;;;;;4.30;2.35;;;;;;;;;;5052367;28;20024;-38
2021/07/02 08:56:59;;;;;;;10.20;1.88;;;;;;;;;;5057433;28;20041;-38
2021/07/02 08:59:26;;;;;;;7.40;2.53;;;;;;;;;;5058100;28;20437;-38
2021/07/02 09:01:51;;;;;;;4.40;2.03;;;;;;;;;;5056592;28;20032;-38
2021/07/02 09:04:21;;;;;;;5.72;2.78;;;;;;;;;;5057067;28;20021;-38
2021/07/02 09:06:59;;;;;;;5.47;2.27;;;;;;;;;;5055833;28;20048;-38
2021/07/02 09:09:24;;;;;;;4.22;2.35;;;;;;;;;;5056214;28;20032;-38
2021/07/02 09:11:50;;;;;;;6.53;2.95;;;;;;;;;;5050313;28;20080;-37
2021/07/02 09:14:22;;;;;;;8.25;2.63;;;;;;;;;;5058040;28;20391;-38
2021/07/02 09:16:48;;;;;;;2.63;1.60;;;;;;;;;;5061298;28;20028;-38
2021/07/02 09:19:20;;;;;;;2.40;1.65;;;;;;;;;;5057236;28;20075;-38
2021/07/02 09:21:45;;;;;;;3.22;1.85;;;;;;;;;;5063143;28;20044;-38
2021/07/02 09:24:30;;;;;;;3.90;2.72;;;;;;;;;;5059819;28;20053;-38
2021/07/02 09:26:56;;;;;;;27.17;10.30;;;;;;;;;;5063315;28;20143;-44
2021/07/02 09:29:23;;;;;;;4.97;2.83;;;;;;;;;;5061824;28;20108;-41
2021/07/02 09:31:59;;;;;;;5.78;2.55;;;;;;;;;;5058807;28;20046;-47
2021/07/02 09:34:43;;;;;;;3.00;1.60;;;;;;;;;;5059094;28;20102;-42
2021/07/02 09:37:29;;;;;;;20.75;3.30;;;;;;;;;;5057875;28;20021;-43
2021/07/02 09:39:54;;;;;;;5.03;2.50;;;;;;;;;;5060577;28;20055;-41
2021/07/02 09:42:24;;;;;;;3.28;2.00;;;;;;;;;;5058318;28;20025;-41
2021/07/02 09:45:22;;;;;;;5.60;2.93;;;;;;;;;;5057043;28;20221;-42
2021/07/02 09:47:47;;;;;;;3.42;2.00;;;;;;;;;;5037597;28;20041;-42
2021/07/02 09:50:24;;;;;;;7.10;1.85;;;;;;;;;;5058950;28;20039;-38
2021/07/02 09:52:49;;;;;;;2.45;1.38;;;;;;;;;;5060949;28;20012;-38
2021/07/02 09:55:16;;;;;;;4.25;2.38;;;;;;;;;;5061975;28;20034;-38
2021/07/02 09:57:41;;;;;;;6.93;3.28;;;;;;;;;;5063258;28;20044;-38
2021/07/02 10:00:14;;;;;;;13.55;3.42;;;;;;;;;;5060378;28;20055;-38
2021/07/02 10:02:50;;;;;;;4.32;1.23;;;;;;;;;;5057557;28;20028;-37
2021/07/02 10:05:15;;;;;;;8.52;2.28;;;;;;;;;;5056401;28;20509;-38
2021/07/02 10:07:41;;;;;;;4.97;2.08;;;;;;;;;;5057804;28;20024;-38
2021/07/02 10:10:06;;;;;;;3.47;2.05;;;;;;;;;;5058989;28;20016;-38
2021/07/02 10:12:32;;;;;;;5.30;1.77;;;;;;;;;;5057068;28;20048;-38
2021/07/02 10:14:57;;;;;;;2.40;1.48;;;;;;;;;;5055168;28;21000;-38
2021/07/02 10:17:23;;;;;;;5.32;2.17;;;;;;;;;;5058985;28;20017;-49
2021/07/02 10:19:48;;;;;;;3.08;2.35;;;;;;;;;;5056849;28;20475;-47
2021/07/02 10:22:18;;;;;;;5.00;2.08;;;;;;;;;;5058420;28;20028;-47
2021/07/02 10:24:46;;;;;;;3.92;1.75;;;;;;;;;;5057906;28;20027;-42
2021/07/02 10:27:11;;;;;;;6.38;2.13;;;;;;;;;;5055652;28;20024;-42
2021/07/02 10:29:36;;;;;;;2.95;1.52;;;;;;;;;;5060038;28;20467;-42
2021/07/02 10:32:02;;;;;;;3.67;1.67;;;;;;;;;;5058042;28;20029;-42
2021/07/02 10:34:27;;;;;;;3.22;2.13;;;;;;;;;;5053807;28;20021;-42
2021/07/02 10:36:53;;;;;;;4.55;2.25;;;;;;;;;;5054700;28;20049;-44
2021/07/02 10:39:29;;;;;;;6.28;1.33;;;;;;;;;;5058495;28;20609;-45
2021/07/02 10:42:08;;;;;;;7.30;2.75;;;;;;;;;;5055600;28;20028;-41
2021/07/02 10:44:53;;;;;;;1.98;1.60;;;;;;;;;;5060726;28;20059;-39
2021/07/02 10:47:19;;;;;;;4.97;3.00;;;;;;;;;;5062121;28;20025;-41
2021/07/02 10:49:44;;;;;;;7.60;1.45;;;;;;;;;;5058571;28;20545;-40
2021/07/02 10:52:16;;;;;;;1.83;1.40;;;;;;;;;;5053507;28;20445;-42
2021/07/02 10:54:41;;;;;;;3.42;1.92;;;;;;;;;;5057052;28;20158;-41
2021/07/02 10:57:11;;;;;;;3.65;2.13;;;;;;;;;;5057824;28;20482;-39
2021/07/02 10:59:37;;;;;;;3.80;1.58;;;;;;;;;;5058376;28;20031;-42
2021/07/02 11:02:15;;;;;;;2.63;1.48;;;;;;;;;;5056880;28;20025;-40
2021/07/02 11:04:40;;;;;;;4.10;2.47;;;;;;;;;;5055497;28;20096;-39
2021/07/02 11:07:12;;;;;;;2.97;1.93;;;;;;;;;;5054290;28;20120;-40
2021/07/02 11:12:35;;;;;;;6.43;2.15;;;;;;;;;;5057322;28;20488;-40
2021/07/02 11:15:10;;;;;;;3.55;2.13;;;;;;;;;;5048583;28;20032;-39
2021/07/02 11:17:39;;;;;;;7.00;2.90;;;;;;;;;;5053580;28;20021;-42
2021/07/02 11:20:12;;;;;;;5.93;2.58;;;;;;;;;;5059871;28;20098;-40
2021/07/02 11:22:45;;;;;;;4.82;3.08;;;;;;;;;;5059470;28;20447;-38
2021/07/02 11:25:22;;;;;;;3.35;1.83;;;;;;;;;;5053521;28;20020;-39
2021/07/02 11:27:49;;;;;;;3.38;2.00;;;;;;;;;;5057678;28;20076;-39
2021/07/02 11:32:47;;;;;;;3.33;2.28;;;;;;;;;;5056837;28;20396;-40
2021/07/02 11:35:19;;;;;;;6.60;2.25;;;;;;;;;;5060284;28;20020;-39
2021/07/02 11:38:08;;;;;;;2.65;1.70;;;;;;;;;;5053328;28;20158;-41
2021/07/02 11:40:33;;;;;;;4.18;2.10;;;;;;;;;;5051275;28;20029;-39
2021/07/02 11:42:59;;;;;;;2.13;1.65;;;;;;;;;;5057319;28;20047;-38
2021/07/02 11:45:43;;;;;;;7.82;3.22;;;;;;;;;;5056650;28;20464;-40
2021/07/02 11:48:26;;;;;;;5.05;2.35;;;;;;;;;;5055740;28;20058;-40
2021/07/02 11:50:57;;;;;;;5.25;2.90;;;;;;;;;;5057166;28;20458;-40
2021/07/02 11:53:46;;;;;;;6.63;2.80;;;;;;;;;;5052086;28;20025;-38
2021/07/02 11:56:15;;;;;;;5.18;2.33;;;;;;;;;;5050450;28;20033;-42
2021/07/02 11:58:42;;;;;;;2.90;2.03;;;;;;;;;;5058241;28;20047;-38
2021/07/02 12:01:14;;;;;;;4.00;2.05;;;;;;;;;;5056032;28;20047;-41
2021/07/02 12:03:46;;;;;;;4.63;1.92;;;;;;;;;;5055762;28;20036;-39
2021/07/02 12:06:14;;;;;;;3.72;1.92;;;;;;;;;;5059174;28;20079;-40
2021/07/02 12:08:47;;;;;;;13.23;2.88;;;;;;;;;;5053449;28;20128;-38
2021/07/02 12:11:12;;;;;;;3.05;1.77;;;;;;;;;;5055613;28;20057;-39
2021/07/02 12:13:37;;;;;;;5.97;1.45;;;;;;;;;;5057388;28;20464;-39
2021/07/02 12:16:02;;;;;;;7.38;2.75;;;;;;;;;;5058650;28;20056;-38
2021/07/02 12:18:28;;;;;;;3.17;2.78;;;;;;;;;;5055708;28;20388;-40
2021/07/02 12:20:57;;;;;;;4.30;1.67;;;;;;;;;;5054328;28;20017;-38
2021/07/02 12:23:27;;;;;;;3.90;2.20;;;;;;;;;;5055218;28;20104;-40
2021/07/02 12:26:13;;;;;;;2.20;1.60;;;;;;;;;;5056375;28;20043;-39
2021/07/02 12:28:50;;;;;;;5.32;2.58;;;;;;;;;;5052056;28;20123;-40
2021/07/02 12:31:19;;;;;;;5.80;1.95;;;;;;;;;;5053000;28;20104;-39
2021/07/02 12:33:45;;;;;;;4.45;1.88;;;;;;;;;;5057101;28;20422;-38
2021/07/02 12:36:10;;;;;;;8.23;2.45;;;;;;;;;;5052325;28;20474;-38
2021/07/02 12:38:56;;;;;;;4.63;2.50;;;;;;;;;;5058736;28;20577;-38
2021/07/02 12:41:21;;;;;;;5.93;2.83;;;;;;;;;;5055849;28;20024;-38
2021/07/02 12:43:46;;;;;;;5.53;1.77;;;;;;;;;;5055445;28;20029;-41
2021/07/02 12:46:11;;;;;;;4.30;2.17;;;;;;;;;;5058690;28;20020;-40
2021/07/02 12:48:37;;;;;;;4.93;2.17;;;;;;;;;;5060429;28;20459;-40
2021/07/02 12:51:02;;;;;;;4.10;2.33;;;;;;;;;;5060648;28;20082;-41
2021/07/02 12:56:11;;;;;;;3.05;1.88;;;;;;;;;;5061099;28;20383;-36
2021/07/02 12:58:37;;;;;;;4.82;1.88;;;;;;;;;;5061290;28;20021;-36
2021/07/02 13:01:06;;;;;;;9.52;2.38;;;;;;;;;;5062672;28;20023;-36
2021/07/02 13:03:31;;;;;;;3.65;1.60;;;;;;;;;;5056776;28;20039;-36
2021/07/02 13:06:10;;;;;;;7.97;2.53;;;;;;;;;;5059757;28;20025;-36
2021/07/02 13:08:38;;;;;;;4.00;2.67;;;;;;;;;;5060081;28;20051;-36
2021/07/02 13:11:16;;;;;;;3.00;2.05;;;;;;;;;;5057805;28;20120;-36
2021/07/02 13:13:41;;;;;;;4.03;1.30;;;;;;;;;;5063933;28;20033;-36
2021/07/02 13:16:07;;;;;;;3.78;1.77;;;;;;;;;;5059967;28;20021;-39
2021/07/02 13:18:51;;;;;;;6.18;2.67;;;;;;;;;;5058059;28;20021;-40
2021/07/02 13:21:29;;;;;;;7.85;3.25;;;;;;;;;;5060334;28;20139;-40
2021/07/02 13:23:55;;;;;;;2.88;1.63;;;;;;;;;;5061942;28;20142;-40
2021/07/02 13:26:22;;;;;;;2.75;2.10;;;;;;;;;;5061672;28;20040;-39
2021/07/02 13:28:49;;;;;;;10.02;2.28;;;;;;;;;;5058291;28;20039;-42
2021/07/02 13:31:22;;;;;;;11.45;3.28;;;;;;;;;;5060880;28;20459;-38
2021/07/02 13:34:06;;;;;;;3.13;1.85;;;;;;;;;;5060566;28;20062;-39
2021/07/02 13:36:32;;;;;;;7.82;2.38;;;;;;;;;;5054231;28;20103;-39
2021/07/02 13:39:07;;;;;;;8.30;2.45;;;;;;;;;;5056875;28;20108;-39
2021/07/02 13:41:32;;;;;;;19.35;3.72;;;;;;;;;;5058208;28;20078;-38
2021/07/02 13:43:59;;;;;;;2.40;1.90;;;;;;;;;;5058750;28;20032;-40
2021/07/02 13:46:31;;;;;;;2.28;1.85;;;;;;;;;;5058914;28;20021;-41
2021/07/02 13:48:57;;;;;;;5.35;2.60;;;;;;;;;;5056721;28;20077;-40
2021/07/02 13:51:22;;;;;;;3.00;1.90;;;;;;;;;;5056719;28;20037;-39
2021/07/02 13:53:47;;;;;;;3.40;2.05;;;;;;;;;;5055549;28;20063;-38
2021/07/02 13:56:13;;;;;;;2.25;2.03;;;;;;;;;;5060218;28;20016;-38
2021/07/02 13:58:38;;;;;;;6.50;2.38;;;;;;;;;;5057966;28;20020;-39
2021/07/02 14:01:03;;;;;;;8.02;2.83;;;;;;;;;;5059024;28;20482;-38
2021/07/02 14:03:28;;;;;;;7.38;2.72;;;;;;;;;;5058577;28;20024;-37
2021/07/02 14:05:54;;;;;;;3.53;2.00;;;;;;;;;;5059909;28;20020;-37
2021/07/02 14:08:19;;;;;;;4.40;3.38;;;;;;;;;;5058307;28;20104;-37
2021/07/02 14:10:44;;;;;;;1.88;1.38;;;;;;;;;;5059878;28;20049;-37
2021/07/02 14:13:10;;;;;;;4.00;1.90;;;;;;;;;;5057905;28;20025;-38
2021/07/02 14:15:35;;;;;;;2.97;1.35;;;;;;;;;;5056494;28;20013;-37
2021/07/02 14:18:00;;;;;;;5.85;1.27;;;;;;;;;;5056987;28;20473;-37
2021/07/02 14:20:26;;;;;;;1.48;1.13;;;;;;;;;;5060526;28;20020;-38
2021/07/02 14:22:51;;;;;;;3.58;1.85;;;;;;;;;;5055911;28;20486;-37
2021/07/02 14:25:17;;;;;;;6.63;2.85;;;;;;;;;;5057568;28;20769;-37
2021/07/02 14:27:43;;;;;;;4.75;2.20;;;;;;;;;;5058764;28;20024;-37
2021/07/02 14:30:10;;;;;;;3.20;2.55;;;;;;;;;;5057313;28;20514;-38
2021/07/02 14:32:35;;;;;;;3.55;2.65;;;;;;;;;;5060579;28;20036;-37
2021/07/02 14:35:01;;;;;;;2.83;1.10;;;;;;;;;;5042828;28;20028;-37
2021/07/02 14:37:26;;;;;;;3.60;2.17;;;;;;;;;;5059226;28;20111;-38
2021/07/02 14:39:52;;;;;;;2.63;1.45;;;;;;;;;;5057233;28;20057;-38
2021/07/02 14:42:18;;;;;;;5.85;1.83;;;;;;;;;;5054510;28;20036;-38
2021/07/02 14:44:43;;;;;;;6.15;2.40;;;;;;;;;;5058785;28;20029;-37
2021/07/02 14:47:08;;;;;;;4.45;1.50;;;;;;;;;;5057420;28;20043;-38
2021/07/02 14:49:34;;;;;;;2.67;1.95;;;;;;;;;;5062168;28;20039;-38